sensor_id;sensor_type;location;lat;lon;timestamp;pressure;altitude;pressure_sealevel;temperature;humidity
69145;BME280;56251;50.324;17.574;2022-08-19T00:00:19;101177.26;;;25.10;62.84
69145;BME280;56251;50.324;17.574;2022-08-19T00:01:40;101177.52;;;25.07;63.05
69145;BME280;56251;50.324;17.574;2022-08-19T00:03:27;101170.83;;;25.02;63.32
69145;BME280;56251;50.324;17.574;2022-08-19T00:04:46;101172.25;;;24.90;63.56
69145;BME280;56251;50.324;17.574;2022-08-19T00:06:34;101169.36;;;24.83;64.06
69145;BME280;56251;50.324;17.574;2022-08-19T00:07:56;101167.12;;;24.71;64.66
69145;BME280;56251;50.324;17.574;2022-08-19T00:09:45;101166.70;;;24.73;64.58
69145;BME280;56251;50.324;17.574;2022-08-19T00:11:03;101165.81;;;24.71;64.75
69145;BME280;56251;50.324;17.574;2022-08-19T00:12:52;101170.17;;;24.61;65.10
69145;BME280;56251;50.324;17.574;2022-08-19T00:14:12;101163.77;;;24.57;65.33
69145;BME280;56251;50.324;17.574;2022-08-19T00:15:58;101158.61;;;24.55;65.46
69145;BME280;56251;50.324;17.574;2022-08-19T00:17:18;101156.39;;;24.56;65.60
69145;BME280;56251;50.324;17.574;2022-08-19T00:19:06;101153.03;;;24.55;65.52
69145;BME280;56251;50.324;17.574;2022-08-19T00:20:24;101152.18;;;24.48;65.73
69145;BME280;56251;50.324;17.574;2022-08-19T00:22:12;101145.80;;;24.46;65.88
69145;BME280;56251;50.324;17.574;2022-08-19T00:23:31;101140.85;;;24.45;65.91
69145;BME280;56251;50.324;17.574;2022-08-19T00:25:19;101142.65;;;24.46;65.82
69145;BME280;56251;50.324;17.574;2022-08-19T00:26:41;101141.16;;;24.41;66.12
69145;BME280;56251;50.324;17.574;2022-08-19T00:28:25;101146.39;;;24.43;66.09
69145;BME280;56251;50.324;17.574;2022-08-19T00:29:47;101144.46;;;24.44;66.09
69145;BME280;56251;50.324;17.574;2022-08-19T00:31:31;101142.54;;;24.42;66.07
69145;BME280;56251;50.324;17.574;2022-08-19T00:32:54;101139.03;;;24.39;66.22
69145;BME280;56251;50.324;17.574;2022-08-19T00:34:37;101139.73;;;24.38;66.29
69145;BME280;56251;50.324;17.574;2022-08-19T00:36:05;101137.14;;;24.37;66.34
69145;BME280;56251;50.324;17.574;2022-08-19T00:37:44;101136.36;;;24.37;66.44
69145;BME280;56251;50.324;17.574;2022-08-19T00:39:13;101136.37;;;24.38;66.44
69145;BME280;56251;50.324;17.574;2022-08-19T00:40:52;101139.45;;;24.34;66.59
69145;BME280;56251;50.324;17.574;2022-08-19T00:42:20;101138.17;;;24.36;66.56
69145;BME280;56251;50.324;17.574;2022-08-19T00:44:10;101136.71;;;24.36;66.56
69145;BME280;56251;50.324;17.574;2022-08-19T00:45:28;101133.57;;;24.38;66.52
69145;BME280;56251;50.324;17.574;2022-08-19T00:47:06;101134.93;;;24.34;66.54
69145;BME280;56251;50.324;17.574;2022-08-19T00:48:37;101131.57;;;24.35;66.67
69145;BME280;56251;50.324;17.574;2022-08-19T00:50:14;101133.62;;;24.32;66.76
69145;BME280;56251;50.324;17.574;2022-08-19T00:51:45;101133.41;;;24.38;66.69
69145;BME280;56251;50.324;17.574;2022-08-19T00:53:22;101129.67;;;24.34;66.74
69145;BME280;56251;50.324;17.574;2022-08-19T00:54:52;101129.56;;;24.31;66.86
69145;BME280;56251;50.324;17.574;2022-08-19T00:56:30;101132.79;;;24.13;67.40
69145;BME280;56251;50.324;17.574;2022-08-19T00:58:05;101135.16;;;24.18;67.48
69145;BME280;56251;50.324;17.574;2022-08-19T00:59:42;101136.23;;;24.19;67.38
69145;BME280;56251;50.324;17.574;2022-08-19T01:01:13;101132.91;;;24.19;67.56
69145;BME280;56251;50.324;17.574;2022-08-19T01:02:49;101129.08;;;24.22;67.32
69145;BME280;56251;50.324;17.574;2022-08-19T01:04:20;101132.01;;;24.26;67.33
69145;BME280;56251;50.324;17.574;2022-08-19T01:05:56;101127.88;;;24.20;67.42
69145;BME280;56251;50.324;17.574;2022-08-19T01:07:27;101125.38;;;24.20;67.44
69145;BME280;56251;50.324;17.574;2022-08-19T01:09:03;101128.25;;;24.25;67.30
69145;BME280;56251;50.324;17.574;2022-08-19T01:10:36;101125.94;;;24.27;67.28
69145;BME280;56251;50.324;17.574;2022-08-19T01:12:10;101126.97;;;24.26;67.28
69145;BME280;56251;50.324;17.574;2022-08-19T01:13:41;101123.98;;;24.25;67.47
69145;BME280;56251;50.324;17.574;2022-08-19T01:15:19;101126.01;;;24.22;67.56
69145;BME280;56251;50.324;17.574;2022-08-19T01:16:47;101124.59;;;24.16;67.77
69145;BME280;56251;50.324;17.574;2022-08-19T01:18:31;101124.12;;;24.03;68.37
69145;BME280;56251;50.324;17.574;2022-08-19T01:19:54;101118.13;;;24.03;68.52
69145;BME280;56251;50.324;17.574;2022-08-19T01:21:44;101122.34;;;23.85;69.35
69145;BME280;56251;50.324;17.574;2022-08-19T01:23:02;101124.72;;;23.88;69.35
69145;BME280;56251;50.324;17.574;2022-08-19T01:24:50;101124.01;;;23.94;69.19
69145;BME280;56251;50.324;17.574;2022-08-19T01:26:10;101124.43;;;23.97;69.01
69145;BME280;56251;50.324;17.574;2022-08-19T01:27:57;101123.39;;;23.96;68.98
69145;BME280;56251;50.324;17.574;2022-08-19T01:29:16;101122.81;;;24.03;68.79
69145;BME280;56251;50.324;17.574;2022-08-19T01:31:04;101122.83;;;24.03;68.81
69145;BME280;56251;50.324;17.574;2022-08-19T01:32:23;101117.67;;;23.92;68.98
69145;BME280;56251;50.324;17.574;2022-08-19T01:34:11;101112.53;;;23.82;69.31
69145;BME280;56251;50.324;17.574;2022-08-19T01:35:30;101118.63;;;23.86;69.28
69145;BME280;56251;50.324;17.574;2022-08-19T01:37:24;101120.38;;;23.88;69.20
69145;BME280;56251;50.324;17.574;2022-08-19T01:38:39;101114.09;;;23.80;69.42
69145;BME280;56251;50.324;17.574;2022-08-19T01:40:32;101116.18;;;23.74;69.70
69145;BME280;56251;50.324;17.574;2022-08-19T01:41:51;101120.55;;;23.77;69.62
69145;BME280;56251;50.324;17.574;2022-08-19T01:43:40;101116.68;;;23.73;69.75
69145;BME280;56251;50.324;17.574;2022-08-19T01:44:59;101115.17;;;23.68;69.95
69145;BME280;56251;50.324;17.574;2022-08-19T01:46:47;101116.21;;;23.57;70.31
69145;BME280;56251;50.324;17.574;2022-08-19T01:48:07;101109.61;;;23.55;70.42
69145;BME280;56251;50.324;17.574;2022-08-19T01:49:57;101112.44;;;23.59;70.39
69145;BME280;56251;50.324;17.574;2022-08-19T01:51:13;101113.11;;;23.63;70.36
69145;BME280;56251;50.324;17.574;2022-08-19T01:53:06;101108.30;;;23.62;70.13
69145;BME280;56251;50.324;17.574;2022-08-19T01:54:21;101104.72;;;23.50;70.61
69145;BME280;56251;50.324;17.574;2022-08-19T01:56:13;101110.34;;;23.51;70.57
69145;BME280;56251;50.324;17.574;2022-08-19T01:57:28;101108.98;;;23.48;70.79
69145;BME280;56251;50.324;17.574;2022-08-19T01:59:21;101107.87;;;23.34;71.37
69145;BME280;56251;50.324;17.574;2022-08-19T02:00:35;101108.90;;;23.31;71.62
69145;BME280;56251;50.324;17.574;2022-08-19T02:02:31;101104.08;;;23.28;71.93
69145;BME280;56251;50.324;17.574;2022-08-19T02:03:41;101111.06;;;23.19;72.14
69145;BME280;56251;50.324;17.574;2022-08-19T02:05:39;101103.87;;;23.12;72.52
69145;BME280;56251;50.324;17.574;2022-08-19T02:06:49;101101.95;;;23.06;72.85
69145;BME280;56251;50.324;17.574;2022-08-19T02:08:45;101108.63;;;23.18;72.45
69145;BME280;56251;50.324;17.574;2022-08-19T02:09:55;101095.62;;;23.16;72.56
69145;BME280;56251;50.324;17.574;2022-08-19T02:11:53;101087.92;;;23.15;72.49
69145;BME280;56251;50.324;17.574;2022-08-19T02:13:02;101083.20;;;23.19;72.41
69145;BME280;56251;50.324;17.574;2022-08-19T02:14:59;101071.86;;;23.23;72.25
69145;BME280;56251;50.324;17.574;2022-08-19T02:16:09;101069.59;;;23.21;72.30
69145;BME280;56251;50.324;17.574;2022-08-19T02:18:08;101066.68;;;23.12;72.56
69145;BME280;56251;50.324;17.574;2022-08-19T02:19:15;101061.12;;;23.05;72.90
69145;BME280;56251;50.324;17.574;2022-08-19T02:21:20;101068.34;;;22.98;73.18
69145;BME280;56251;50.324;17.574;2022-08-19T02:22:23;101077.32;;;23.04;73.08
69145;BME280;56251;50.324;17.574;2022-08-19T02:24:27;101082.79;;;23.10;72.79
69145;BME280;56251;50.324;17.574;2022-08-19T02:25:30;101079.73;;;22.95;73.21
69145;BME280;56251;50.324;17.574;2022-08-19T02:27:35;101091.73;;;22.93;73.55
69145;BME280;56251;50.324;17.574;2022-08-19T02:28:37;101089.10;;;22.96;73.56
69145;BME280;56251;50.324;17.574;2022-08-19T02:30:42;101082.04;;;22.86;73.92
69145;BME280;56251;50.324;17.574;2022-08-19T02:31:47;101076.48;;;22.88;73.90
69145;BME280;56251;50.324;17.574;2022-08-19T02:33:48;101066.26;;;22.83;74.14
69145;BME280;56251;50.324;17.574;2022-08-19T02:34:54;101065.26;;;22.84;74.01
69145;BME280;56251;50.324;17.574;2022-08-19T02:36:56;101061.80;;;22.85;73.87
69145;BME280;56251;50.324;17.574;2022-08-19T02:38:02;101063.23;;;22.78;74.18
69145;BME280;56251;50.324;17.574;2022-08-19T02:40:02;101060.87;;;22.72;74.45
69145;BME280;56251;50.324;17.574;2022-08-19T02:41:33;101065.91;;;22.72;74.46
69145;BME280;56251;50.324;17.574;2022-08-19T02:43:09;101067.34;;;22.64;74.84
69145;BME280;56251;50.324;17.574;2022-08-19T02:44:40;101065.19;;;22.62;75.14
69145;BME280;56251;50.324;17.574;2022-08-19T02:46:20;101074.89;;;22.65;74.94
69145;BME280;56251;50.324;17.574;2022-08-19T02:47:47;101085.82;;;22.69;74.79
69145;BME280;56251;50.324;17.574;2022-08-19T02:49:27;101087.78;;;22.56;75.15
69145;BME280;56251;50.324;17.574;2022-08-19T02:50:57;101085.21;;;22.61;75.08
69145;BME280;56251;50.324;17.574;2022-08-19T02:52:34;101083.48;;;22.59;75.11
69145;BME280;56251;50.324;17.574;2022-08-19T02:54:05;101091.52;;;22.66;74.95
69145;BME280;56251;50.324;17.574;2022-08-19T02:55:46;101089.66;;;22.68;74.98
69145;BME280;56251;50.324;17.574;2022-08-19T02:57:11;101095.42;;;22.46;75.69
69145;BME280;56251;50.324;17.574;2022-08-19T02:58:54;101101.43;;;22.42;75.99
69145;BME280;56251;50.324;17.574;2022-08-19T03:00:17;101101.09;;;22.42;75.92
69145;BME280;56251;50.324;17.574;2022-08-19T03:02:01;101105.53;;;22.30;76.57
69145;BME280;56251;50.324;17.574;2022-08-19T03:03:25;101107.16;;;22.32;76.60
69145;BME280;56251;50.324;17.574;2022-08-19T03:05:09;101116.85;;;22.41;76.37
69145;BME280;56251;50.324;17.574;2022-08-19T03:06:31;101117.74;;;22.49;76.03
69145;BME280;56251;50.324;17.574;2022-08-19T03:08:17;101110.70;;;22.66;75.46
69145;BME280;56251;50.324;17.574;2022-08-19T03:09:38;101110.63;;;22.74;75.25
69145;BME280;56251;50.324;17.574;2022-08-19T03:11:28;101119.66;;;22.79;75.00
69145;BME280;56251;50.324;17.574;2022-08-19T03:12:44;101110.55;;;22.75;75.04
69145;BME280;56251;50.324;17.574;2022-08-19T03:14:31;101112.71;;;22.78;74.91
69145;BME280;56251;50.324;17.574;2022-08-19T03:15:51;101114.86;;;22.86;74.73
69145;BME280;56251;50.324;17.574;2022-08-19T03:17:37;101120.94;;;22.89;74.57
69145;BME280;56251;50.324;17.574;2022-08-19T03:18:57;101125.41;;;22.97;74.46
69145;BME280;56251;50.324;17.574;2022-08-19T03:20:46;101125.39;;;22.96;74.27
69145;BME280;56251;50.324;17.574;2022-08-19T03:22:06;101131.27;;;22.95;74.26
69145;BME280;56251;50.324;17.574;2022-08-19T03:24:00;101131.32;;;22.93;74.46
69145;BME280;56251;50.324;17.574;2022-08-19T03:25:14;101123.99;;;22.84;74.71
69145;BME280;56251;50.324;17.574;2022-08-19T03:27:06;101128.33;;;22.57;75.75
69145;BME280;56251;50.324;17.574;2022-08-19T03:28:20;101126.77;;;22.62;75.88
69145;BME280;56251;50.324;17.574;2022-08-19T03:30:13;101126.73;;;22.60;75.83
69145;BME280;56251;50.324;17.574;2022-08-19T03:31:27;101126.62;;;22.71;75.47
69145;BME280;56251;50.324;17.574;2022-08-19T03:33:19;101126.42;;;22.74;75.20
69145;BME280;56251;50.324;17.574;2022-08-19T03:34:35;101132.96;;;22.72;75.35
69145;BME280;56251;50.324;17.574;2022-08-19T03:36:28;101135.73;;;22.68;75.39
69145;BME280;56251;50.324;17.574;2022-08-19T03:37:41;101136.14;;;22.63;75.73
69145;BME280;56251;50.324;17.574;2022-08-19T03:39:35;101144.18;;;22.55;76.26
69145;BME280;56251;50.324;17.574;2022-08-19T03:40:47;101146.25;;;22.54;76.23
69145;BME280;56251;50.324;17.574;2022-08-19T03:42:42;101151.16;;;22.55;76.22
69145;BME280;56251;50.324;17.574;2022-08-19T03:43:54;101150.60;;;22.58;76.06
69145;BME280;56251;50.324;17.574;2022-08-19T03:45:48;101148.71;;;22.56;76.09
69145;BME280;56251;50.324;17.574;2022-08-19T03:47:00;101148.72;;;22.58;75.95
69145;BME280;56251;50.324;17.574;2022-08-19T03:48:58;101156.40;;;22.58;76.00
69145;BME280;56251;50.324;17.574;2022-08-19T03:50:07;101157.99;;;22.55;75.96
69145;BME280;56251;50.324;17.574;2022-08-19T03:52:04;101154.02;;;22.30;76.79
69145;BME280;56251;50.324;17.574;2022-08-19T03:53:14;101154.21;;;22.33;77.01
69145;BME280;56251;50.324;17.574;2022-08-19T03:55:13;101163.78;;;22.28;77.14
69145;BME280;56251;50.324;17.574;2022-08-19T03:56:21;101165.52;;;22.23;77.47
69145;BME280;56251;50.324;17.574;2022-08-19T03:58:20;101166.77;;;22.18;77.81
69145;BME280;56251;50.324;17.574;2022-08-19T03:59:33;101166.34;;;22.16;77.92
69145;BME280;56251;50.324;17.574;2022-08-19T04:01:28;101167.29;;;22.22;77.84
69145;BME280;56251;50.324;17.574;2022-08-19T04:02:38;101174.72;;;22.30;77.47
69145;BME280;56251;50.324;17.574;2022-08-19T04:04:35;101173.45;;;22.36;77.26
69145;BME280;56251;50.324;17.574;2022-08-19T04:05:45;101176.38;;;22.43;76.95
69145;BME280;56251;50.324;17.574;2022-08-19T04:07:42;101170.37;;;22.40;76.94
69145;BME280;56251;50.324;17.574;2022-08-19T04:08:54;101174.40;;;22.44;76.82
69145;BME280;56251;50.324;17.574;2022-08-19T04:10:53;101166.27;;;22.40;76.80
69145;BME280;56251;50.324;17.574;2022-08-19T04:12:00;101160.63;;;22.35;77.02
69145;BME280;56251;50.324;17.574;2022-08-19T04:14:00;101162.05;;;22.27;77.38
69145;BME280;56251;50.324;17.574;2022-08-19T04:15:06;101170.24;;;22.26;77.47
69145;BME280;56251;50.324;17.574;2022-08-19T04:17:06;101165.27;;;22.18;77.68
69145;BME280;56251;50.324;17.574;2022-08-19T04:18:14;101165.70;;;22.25;77.37
69145;BME280;56251;50.324;17.574;2022-08-19T04:20:13;101173.74;;;22.33;77.02
69145;BME280;56251;50.324;17.574;2022-08-19T04:21:22;101170.09;;;22.21;77.39
69145;BME280;56251;50.324;17.574;2022-08-19T04:23:19;101166.27;;;22.16;77.80
69145;BME280;56251;50.324;17.574;2022-08-19T04:24:29;101170.90;;;22.24;77.66
69145;BME280;56251;50.324;17.574;2022-08-19T04:26:29;101169.54;;;22.41;77.08
69145;BME280;56251;50.324;17.574;2022-08-19T04:27:36;101171.22;;;22.50;76.77
69145;BME280;56251;50.324;17.574;2022-08-19T04:29:40;101169.46;;;22.54;75.87
69145;BME280;56251;50.324;17.574;2022-08-19T04:30:48;101170.33;;;22.60;75.57
69145;BME280;56251;50.324;17.574;2022-08-19T04:32:46;101172.59;;;22.70;74.90
69145;BME280;56251;50.324;17.574;2022-08-19T04:33:56;101170.62;;;22.69;74.95
69145;BME280;56251;50.324;17.574;2022-08-19T04:35:53;101175.43;;;22.73;74.74
69145;BME280;56251;50.324;17.574;2022-08-19T04:37:04;101175.87;;;22.74;74.66
69145;BME280;56251;50.324;17.574;2022-08-19T04:39:05;101183.26;;;22.76;74.68
69145;BME280;56251;50.324;17.574;2022-08-19T04:40:15;101188.38;;;22.81;74.66
69145;BME280;56251;50.324;17.574;2022-08-19T04:42:08;101187.00;;;22.96;74.14
69145;BME280;56251;50.324;17.574;2022-08-19T04:44:03;101175.96;;;22.96;73.68
69145;BME280;56251;50.324;17.574;2022-08-19T04:45:47;101173.90;;;22.99;73.82
69145;BME280;56251;50.324;17.574;2022-08-19T04:47:09;101176.60;;;23.10;73.24
69145;BME280;56251;50.324;17.574;2022-08-19T04:48:56;101165.23;;;23.03;73.01
69145;BME280;56251;50.324;17.574;2022-08-19T04:50:16;101167.73;;;23.05;73.43
69145;BME280;56251;50.324;17.574;2022-08-19T04:52:03;101174.26;;;23.14;72.30
69145;BME280;56251;50.324;17.574;2022-08-19T04:53:26;101170.80;;;23.25;71.71
69145;BME280;56251;50.324;17.574;2022-08-19T04:55:13;101166.36;;;23.25;71.80
69145;BME280;56251;50.324;17.574;2022-08-19T04:56:32;101170.70;;;23.41;71.42
69145;BME280;56251;50.324;17.574;2022-08-19T04:58:25;101162.53;;;23.58;70.95
69145;BME280;56251;50.324;17.574;2022-08-19T04:59:39;101159.77;;;23.61;70.08
69145;BME280;56251;50.324;17.574;2022-08-19T05:01:33;101152.70;;;23.79;69.58
69145;BME280;56251;50.324;17.574;2022-08-19T05:02:45;101149.52;;;23.90;69.07
69145;BME280;56251;50.324;17.574;2022-08-19T05:04:41;101139.70;;;23.87;69.19
69145;BME280;56251;50.324;17.574;2022-08-19T05:05:52;101139.42;;;23.88;68.62
69145;BME280;56251;50.324;17.574;2022-08-19T05:07:50;101140.82;;;24.01;68.65
69145;BME280;56251;50.324;17.574;2022-08-19T05:09:05;101139.22;;;24.16;68.48
69145;BME280;56251;50.324;17.574;2022-08-19T05:10:54;101141.52;;;24.35;67.70
69145;BME280;56251;50.324;17.574;2022-08-19T05:12:10;101141.14;;;24.49;67.02
69145;BME280;56251;50.324;17.574;2022-08-19T05:14:02;101144.38;;;24.63;66.94
69145;BME280;56251;50.324;17.574;2022-08-19T05:15:18;101143.93;;;24.76;66.13
69145;BME280;56251;50.324;17.574;2022-08-19T05:17:08;101145.88;;;24.92;64.10
69145;BME280;56251;50.324;17.574;2022-08-19T05:18:27;101149.59;;;25.00;63.77
69145;BME280;56251;50.324;17.574;2022-08-19T05:20:14;101143.97;;;25.10;62.75
69145;BME280;56251;50.324;17.574;2022-08-19T05:22:11;101135.06;;;25.10;62.52
69145;BME280;56251;50.324;17.574;2022-08-19T05:23:59;101136.99;;;25.30;62.59
69145;BME280;56251;50.324;17.574;2022-08-19T05:25:45;101138.93;;;25.44;61.03
69145;BME280;56251;50.324;17.574;2022-08-19T05:27:05;101133.46;;;25.48;60.13
69145;BME280;56251;50.324;17.574;2022-08-19T05:28:52;101125.88;;;25.42;60.29
69145;BME280;56251;50.324;17.574;2022-08-19T05:30:14;101125.99;;;25.50;60.28
69145;BME280;56251;50.324;17.574;2022-08-19T05:32:01;101133.11;;;25.58;59.58
69145;BME280;56251;50.324;17.574;2022-08-19T05:33:23;101136.89;;;25.57;58.30
69145;BME280;56251;50.324;17.574;2022-08-19T05:35:11;101143.08;;;25.75;57.93
69145;BME280;56251;50.324;17.574;2022-08-19T05:36:37;101148.77;;;25.86;57.00
69145;BME280;56251;50.324;17.574;2022-08-19T05:38:20;101149.59;;;25.99;56.61
69145;BME280;56251;50.324;17.574;2022-08-19T05:39:48;101143.22;;;26.07;56.58
69145;BME280;56251;50.324;17.574;2022-08-19T05:41:26;101141.58;;;26.07;56.48
69145;BME280;56251;50.324;17.574;2022-08-19T05:42:55;101146.58;;;26.20;56.75
69145;BME280;56251;50.324;17.574;2022-08-19T05:44:39;101140.80;;;26.31;56.96
69145;BME280;56251;50.324;17.574;2022-08-19T05:46:03;101134.49;;;26.37;56.88
69145;BME280;56251;50.324;17.574;2022-08-19T05:47:45;101140.38;;;26.49;57.01
69145;BME280;56251;50.324;17.574;2022-08-19T05:49:11;101137.63;;;26.51;55.90
69145;BME280;56251;50.324;17.574;2022-08-19T05:50:51;101139.09;;;26.67;55.62
69145;BME280;56251;50.324;17.574;2022-08-19T05:52:22;101142.41;;;26.85;55.53
69145;BME280;56251;50.324;17.574;2022-08-19T05:53:57;101148.63;;;27.09;53.80
69145;BME280;56251;50.324;17.574;2022-08-19T05:55:32;101154.16;;;27.38;53.67
69145;BME280;56251;50.324;17.574;2022-08-19T05:57:05;101156.28;;;27.56;53.05
69145;BME280;56251;50.324;17.574;2022-08-19T05:58:38;101155.07;;;27.68;51.61
69145;BME280;56251;50.324;17.574;2022-08-19T06:00:12;101159.71;;;27.75;50.14
69145;BME280;56251;50.324;17.574;2022-08-19T06:01:46;101159.39;;;27.84;50.07
69145;BME280;56251;50.324;17.574;2022-08-19T06:03:19;101158.62;;;27.93;50.18
69145;BME280;56251;50.324;17.574;2022-08-19T06:04:55;101157.77;;;28.17;49.66
69145;BME280;56251;50.324;17.574;2022-08-19T06:06:25;101151.00;;;28.14;48.51
69145;BME280;56251;50.324;17.574;2022-08-19T06:08:04;101151.23;;;28.22;48.49
69145;BME280;56251;50.324;17.574;2022-08-19T06:09:33;101153.45;;;28.50;48.50
69145;BME280;56251;50.324;17.574;2022-08-19T06:11:22;101158.52;;;28.81;48.47
69145;BME280;56251;50.324;17.574;2022-08-19T06:12:42;101153.60;;;28.94;46.40
69145;BME280;56251;50.324;17.574;2022-08-19T06:14:35;101160.92;;;29.26;46.45
69145;BME280;56251;50.324;17.574;2022-08-19T06:15:49;101158.99;;;29.21;45.19
69145;BME280;56251;50.324;17.574;2022-08-19T06:17:44;101156.45;;;29.19;42.28
69145;BME280;56251;50.324;17.574;2022-08-19T06:18:56;101167.09;;;29.29;43.53
69145;BME280;56251;50.324;17.574;2022-08-19T06:20:53;101174.88;;;29.66;43.42
69145;BME280;56251;50.324;17.574;2022-08-19T06:22:02;101172.97;;;29.83;43.41
69145;BME280;56251;50.324;17.574;2022-08-19T06:23:59;101167.85;;;29.94;43.39
69145;BME280;56251;50.324;17.574;2022-08-19T06:25:16;101178.52;;;30.12;43.41
69145;BME280;56251;50.324;17.574;2022-08-19T06:27:05;101166.23;;;30.25;41.24
69145;BME280;56251;50.324;17.574;2022-08-19T06:28:23;101174.87;;;30.36;41.61
69145;BME280;56251;50.324;17.574;2022-08-19T06:30:12;101182.77;;;30.60;42.86
69145;BME280;56251;50.324;17.574;2022-08-19T06:31:33;101192.63;;;30.96;42.03
69145;BME280;56251;50.324;17.574;2022-08-19T06:33:19;101191.65;;;31.29;41.04
69145;BME280;56251;50.324;17.574;2022-08-19T06:34:42;101191.51;;;31.51;41.27
69145;BME280;56251;50.324;17.574;2022-08-19T06:36:27;101190.99;;;31.65;41.04
69145;BME280;56251;50.324;17.574;2022-08-19T06:37:49;101187.33;;;31.66;41.91
69145;BME280;56251;50.324;17.574;2022-08-19T06:39:37;101183.05;;;31.70;41.79
69145;BME280;56251;50.324;17.574;2022-08-19T06:41:04;101184.68;;;31.92;41.71
69145;BME280;56251;50.324;17.574;2022-08-19T06:42:44;101176.61;;;31.99;41.14
69145;BME280;56251;50.324;17.574;2022-08-19T06:44:12;101181.41;;;32.40;40.63
69145;BME280;56251;50.324;17.574;2022-08-19T06:45:54;101184.42;;;32.63;40.75
69145;BME280;56251;50.324;17.574;2022-08-19T06:47:21;101188.64;;;32.69;38.84
69145;BME280;56251;50.324;17.574;2022-08-19T06:49:02;101186.36;;;32.95;39.25
69145;BME280;56251;50.324;17.574;2022-08-19T06:50:27;101188.83;;;32.90;39.02
69145;BME280;56251;50.324;17.574;2022-08-19T06:52:11;101192.52;;;33.11;35.24
69145;BME280;56251;50.324;17.574;2022-08-19T06:53:34;101195.27;;;33.33;34.95
69145;BME280;56251;50.324;17.574;2022-08-19T06:55:21;101207.16;;;33.63;37.13
69145;BME280;56251;50.324;17.574;2022-08-19T06:56:41;101207.91;;;33.88;38.13
69145;BME280;56251;50.324;17.574;2022-08-19T06:58:28;101206.82;;;34.07;38.40
69145;BME280;56251;50.324;17.574;2022-08-19T06:59:48;101209.66;;;34.21;37.87
69145;BME280;56251;50.324;17.574;2022-08-19T07:01:40;101204.20;;;34.38;36.87
69145;BME280;56251;50.324;17.574;2022-08-19T07:02:54;101207.38;;;34.47;36.50
69145;BME280;56251;50.324;17.574;2022-08-19T07:04:46;101214.56;;;34.69;35.22
69145;BME280;56251;50.324;17.574;2022-08-19T07:06:12;101216.23;;;34.76;33.22
69145;BME280;56251;50.324;17.574;2022-08-19T07:07:56;101212.41;;;34.95;30.57
69145;BME280;56251;50.324;17.574;2022-08-19T07:09:17;101215.64;;;35.02;32.03
69145;BME280;56251;50.324;17.574;2022-08-19T07:11:10;101221.25;;;35.32;32.36
69145;BME280;56251;50.324;17.574;2022-08-19T07:12:24;101220.77;;;35.50;31.68
69145;BME280;56251;50.324;17.574;2022-08-19T07:14:20;101222.09;;;35.72;31.69
69145;BME280;56251;50.324;17.574;2022-08-19T07:15:37;101223.65;;;35.87;31.67
69145;BME280;56251;50.324;17.574;2022-08-19T07:17:26;101232.27;;;36.00;30.54
69145;BME280;56251;50.324;17.574;2022-08-19T07:18:44;101226.58;;;36.09;29.58
69145;BME280;56251;50.324;17.574;2022-08-19T07:20:33;101229.02;;;36.16;29.40
69145;BME280;56251;50.324;17.574;2022-08-19T07:21:55;101235.14;;;36.30;27.81
69145;BME280;56251;50.324;17.574;2022-08-19T07:23:45;101233.22;;;36.54;29.02
69145;BME280;56251;50.324;17.574;2022-08-19T07:27:16;101238.15;;;36.83;28.80
69145;BME280;56251;50.324;17.574;2022-08-19T07:27:26;101237.83;;;36.78;28.62
69145;BME280;56251;50.324;17.574;2022-08-19T07:30:26;101239.02;;;37.04;28.03
69145;BME280;56251;50.324;17.574;2022-08-19T07:30:33;101239.70;;;37.06;28.00
69145;BME280;56251;50.324;17.574;2022-08-19T07:33:33;101241.37;;;37.07;28.04
69145;BME280;56251;50.324;17.574;2022-08-19T07:33:42;101243.16;;;37.05;28.28
69145;BME280;56251;50.324;17.574;2022-08-19T07:36:43;101237.73;;;37.01;27.81
69145;BME280;56251;50.324;17.574;2022-08-19T07:36:57;101242.12;;;37.05;27.88
69145;BME280;56251;50.324;17.574;2022-08-19T07:39:52;101234.54;;;36.98;28.02
69145;BME280;56251;50.324;17.574;2022-08-19T07:40:10;101236.49;;;36.98;28.17
69145;BME280;56251;50.324;17.574;2022-08-19T07:43:04;101247.42;;;36.84;28.58
69145;BME280;56251;50.324;17.574;2022-08-19T07:43:16;101248.91;;;36.84;28.60
69145;BME280;56251;50.324;17.574;2022-08-19T07:46:11;101256.98;;;36.55;29.14
69145;BME280;56251;50.324;17.574;2022-08-19T07:46:25;101256.38;;;36.51;29.31
69145;BME280;56251;50.324;17.574;2022-08-19T07:49:19;101264.02;;;36.31;29.66
69145;BME280;56251;50.324;17.574;2022-08-19T07:49:32;101267.29;;;36.33;29.52
69145;BME280;56251;50.324;17.574;2022-08-19T07:52:27;101259.61;;;36.10;29.17
69145;BME280;56251;50.324;17.574;2022-08-19T07:52:39;101258.05;;;36.07;29.35
69145;BME280;56251;50.324;17.574;2022-08-19T07:55:33;101262.48;;;35.77;30.44
69145;BME280;56251;50.324;17.574;2022-08-19T07:55:46;101263.34;;;35.76;30.46
69145;BME280;56251;50.324;17.574;2022-08-19T07:58:41;101264.51;;;35.57;31.06
69145;BME280;56251;50.324;17.574;2022-08-19T07:58:56;101264.69;;;35.50;30.97
69145;BME280;56251;50.324;17.574;2022-08-19T08:01:52;101267.15;;;34.98;30.66
69145;BME280;56251;50.324;17.574;2022-08-19T08:02:03;101266.11;;;34.98;30.67
69145;BME280;56251;50.324;17.574;2022-08-19T08:04:59;101267.70;;;34.88;30.88
69145;BME280;56251;50.324;17.574;2022-08-19T08:05:44;101269.75;;;34.90;30.90
69145;BME280;56251;50.324;17.574;2022-08-19T08:08:44;101266.82;;;34.64;30.52